createdAt,value
2023-01-15T00:01:51.562Z,290.50
2023-01-15T00:04:40.867Z,223.55
2023-01-15T00:07:30.561Z,129.60
2023-01-15T00:10:19.998Z,149.60
2023-01-15T00:13:09.259Z,255.60
2023-01-15T00:16:06.943Z,298.27
2023-01-15T00:18:59.098Z,181.57
2023-01-15T00:21:48.461Z,161.53
2023-01-15T00:24:55.006Z,190.07
2023-01-15T00:27:46.047Z,119.45
2023-01-15T00:30:43.007Z,168.65
2023-01-15T00:33:33.766Z,201.45
2023-01-15T00:36:23.038Z,105.72
2023-01-15T00:39:12.279Z,293.60
2023-01-15T00:42:02.207Z,134.25
2023-01-15T00:44:51.442Z,137.23
2023-01-15T00:47:42.381Z,272.52
2023-01-15T00:50:33.127Z,250.32
2023-01-15T00:53:22.665Z,281.45
2023-01-15T00:56:11.934Z,141.75
2023-01-15T00:59:04.019Z,70.70
2023-01-15T01:01:53.819Z,49.25
2023-01-15T01:04:43.183Z,101.18
2023-01-15T01:07:33.826Z,142.60
2023-01-15T01:10:23.026Z,130.07
2023-01-15T01:13:13.412Z,245.27
2023-01-15T01:16:02.770Z,245.35
2023-01-15T01:18:53.216Z,116.30
2023-01-15T01:21:45.105Z,279.95
2023-01-15T01:24:35.778Z,269.33
2023-01-15T01:27:25.022Z,202.48
2023-01-15T01:30:15.796Z,255.40
2023-01-15T01:33:05.272Z,242.10
2023-01-15T01:35:54.536Z,118.47
2023-01-15T01:38:43.753Z,114.47
2023-01-15T01:41:35.634Z,200.23
2023-01-15T01:45:02.794Z,387.15
2023-01-15T01:47:54.988Z,302.05
2023-01-15T01:50:45.135Z,321.02
2023-01-15T01:53:34.690Z,134.05
2023-01-15T01:56:25.187Z,155.38
2023-01-15T01:59:16.389Z,117.95
2023-01-15T02:02:06.298Z,109.07
2023-01-15T02:04:55.621Z,309.92
2023-01-15T02:07:44.888Z,98.20
2023-01-15T02:10:34.426Z,200.85
2023-01-15T02:13:35.014Z,96.13
2023-01-15T02:16:31.022Z,168.73
2023-01-15T02:19:36.146Z,235.88
2023-01-15T02:22:34.586Z,87.28
2023-01-15T02:25:35.178Z,60.90
2023-01-15T02:28:29.024Z,138.77
2023-01-15T02:31:26.449Z,115.13
2023-01-15T02:34:25.354Z,134.75
2023-01-15T02:37:21.601Z,102.95
2023-01-15T02:40:14.256Z,247.13
2023-01-15T02:43:05.349Z,201.10
2023-01-15T02:45:58.365Z,121.45
2023-01-15T02:48:54.089Z,59.80
2023-01-15T02:51:50.158Z,195.30
2023-01-15T02:54:48.197Z,274.48
2023-01-15T02:57:42.560Z,283.27
2023-01-15T03:00:36.402Z,330.13
2023-01-15T03:03:47.944Z,137.52
2023-01-15T03:06:45.049Z,315.58
2023-01-15T03:09:35.089Z,156.60
2023-01-15T03:12:30.234Z,298.35
2023-01-15T03:15:44.595Z,250.07
2023-01-15T03:18:43.700Z,227.98
2023-01-15T03:21:42.498Z,149.25
2023-01-15T03:24:40.644Z,132.55
2023-01-15T03:27:31.573Z,221.73
2023-01-15T03:30:23.420Z,233.15
2023-01-15T03:36:07.308Z,66.47
2023-01-15T03:39:04.007Z,38.78
2023-01-15T03:42:28.072Z,157.63
2023-01-15T03:45:25.788Z,78.30
2023-01-15T03:48:22.035Z,154.77
2023-01-15T03:51:19.585Z,38.95
2023-01-15T03:54:16.971Z,278.02
2023-01-15T03:57:20.261Z,141.43
2023-01-15T04:00:16.752Z,177.90
2023-01-15T04:03:13.668Z,250.63
2023-01-15T04:06:04.811Z,158.05
2023-01-15T04:08:56.581Z,199.40
2023-01-15T04:11:47.194Z,72.47
2023-01-15T04:14:36.992Z,72.13
2023-01-15T04:17:30.624Z,182.70
2023-01-15T04:20:20.865Z,262.42
2023-01-15T04:23:11.405Z,330.70
2023-01-15T04:26:02.081Z,221.38
2023-01-15T04:28:51.550Z,97.05
2023-01-15T04:31:40.836Z,160.82
2023-01-15T04:34:30.835Z,61.50
2023-01-15T04:37:20.571Z,291.10
2023-01-15T04:40:31.551Z,102.45
2023-01-15T04:43:39.495Z,43.80
2023-01-15T04:46:28.751Z,31.42
2023-01-15T04:49:19.707Z,62.17
2023-01-15T04:52:09.704Z,38.28
2023-01-15T04:54:59.100Z,116.05
2023-01-15T04:57:51.291Z,172.68
2023-01-15T05:00:42.154Z,56.50
2023-01-15T05:03:32.465Z,105.05
2023-01-15T05:06:21.746Z,61.97
2023-01-15T05:09:11.014Z,92.60
2023-01-15T05:12:00.336Z,115.78
2023-01-15T05:14:49.829Z,65.20
2023-01-15T05:17:40.539Z,69.35
2023-01-15T05:20:29.830Z,88.63
2023-01-15T05:23:19.060Z,189.30
2023-01-15T05:26:08.326Z,182.73
2023-01-15T05:28:59.805Z,44.45
2023-01-15T05:31:49.019Z,90.43
2023-01-15T05:34:39.769Z,104.95
2023-01-15T05:37:31.436Z,355.05
2023-01-15T05:40:20.902Z,146.68
2023-01-15T05:43:10.073Z,154.38
2023-01-15T05:46:03.380Z,80.75
2023-01-15T05:48:52.724Z,182.73
2023-01-15T05:51:44.044Z,97.72
2023-01-15T05:54:36.212Z,153.80
2023-01-15T05:57:25.678Z,251.48
2023-01-15T06:00:16.729Z,159.05
2023-01-15T06:03:06.021Z,88.05
2023-01-15T06:05:56.066Z,62.63
2023-01-15T06:08:47.746Z,115.38
2023-01-15T06:11:36.987Z,134.95
2023-01-15T06:14:26.540Z,47.80
2023-01-15T06:17:15.892Z,143.57
2023-01-15T06:20:06.277Z,37.78
2023-01-15T06:22:55.557Z,36.40
2023-01-15T06:25:46.606Z,63.13
2023-01-15T06:28:36.055Z,62.45
2023-01-15T06:31:27.517Z,95.25
2023-01-15T06:34:16.900Z,76.05
2023-01-15T06:37:06.923Z,34.20
2023-01-15T06:39:56.194Z,110.45
2023-01-15T06:43:04.695Z,79.13
2023-01-15T06:46:20.658Z,78.95
2023-01-15T06:49:09.892Z,25.00
2023-01-15T06:51:59.206Z,32.85
2023-01-15T06:54:48.500Z,20.90
2023-01-15T06:57:40.897Z,156.73
2023-01-15T07:00:31.679Z,57.60
2023-01-15T07:03:20.968Z,63.63
2023-01-15T07:06:12.283Z,133.85
2023-01-15T07:09:01.788Z,214.85
2023-01-15T07:11:51.057Z,94.15
2023-01-15T07:14:40.337Z,32.92
2023-01-15T07:17:31.039Z,82.30
2023-01-15T07:20:21.759Z,60.40
2023-01-15T07:23:11.089Z,31.85
2023-01-15T07:26:00.328Z,26.25
2023-01-15T07:28:49.564Z,159.82
2023-01-15T07:31:38.948Z,104.05
2023-01-15T07:34:29.612Z,113.18
2023-01-15T07:37:18.855Z,47.90
2023-01-15T07:40:09.299Z,53.63
2023-01-15T07:43:15.823Z,28.02
2023-01-15T07:46:22.183Z,44.72
2023-01-15T07:49:29.853Z,85.60
2023-01-15T07:52:23.002Z,33.58
2023-01-15T07:55:13.752Z,78.88
2023-01-15T07:58:04.699Z,178.00
2023-01-15T08:00:54.704Z,47.00
2023-01-15T08:03:43.949Z,96.78
2023-01-15T08:06:33.150Z,30.65
2023-01-15T08:09:25.883Z,76.80
2023-01-15T08:12:32.247Z,39.20
2023-01-15T08:15:21.694Z,48.60
2023-01-15T08:18:11.060Z,39.05
2023-01-15T08:21:00.252Z,45.08
2023-01-15T08:23:51.089Z,66.30
2023-01-15T08:26:41.745Z,77.53
2023-01-15T08:29:31.094Z,30.02
2023-01-15T08:32:20.391Z,45.63
2023-01-15T08:35:10.689Z,28.58
2023-01-15T08:37:59.943Z,57.35
2023-01-15T08:41:00.791Z,40.05
2023-01-15T08:43:51.505Z,67.18
2023-01-15T08:46:40.781Z,147.30
2023-01-15T08:49:30.350Z,104.63
2023-01-15T08:52:19.589Z,48.50
2023-01-15T08:55:10.200Z,33.65
2023-01-15T08:57:59.397Z,56.95
2023-01-15T09:00:50.277Z,151.65
2023-01-15T09:03:39.720Z,94.60
2023-01-15T09:06:29.461Z,94.88
2023-01-15T09:09:19.016Z,105.45
2023-01-15T09:12:09.051Z,82.97
2023-01-15T09:15:02.790Z,91.85
2023-01-15T09:17:54.995Z,145.68
2023-01-15T09:20:44.227Z,94.20
2023-01-15T09:23:33.536Z,84.20
2023-01-15T09:26:30.222Z,122.00
2023-01-15T09:29:19.462Z,138.98
2023-01-15T09:32:10.465Z,98.18
2023-01-15T09:35:01.484Z,83.88
2023-01-15T09:37:54.036Z,96.03
2023-01-15T09:40:51.159Z,131.15
2023-01-15T09:43:54.348Z,89.10
2023-01-15T09:46:55.257Z,148.23
2023-01-15T09:50:16.357Z,100.28
2023-01-15T09:53:27.768Z,96.72
2023-01-15T09:56:23.622Z,71.57
2023-01-15T09:59:25.778Z,55.95
2023-01-15T10:02:26.956Z,95.75
2023-01-15T10:05:23.613Z,26.40
2023-01-15T10:08:21.362Z,52.55
2023-01-15T10:11:56.816Z,27.63
2023-01-15T10:14:55.662Z,30.90
2023-01-15T10:17:48.904Z,18.75
2023-01-15T10:21:09.208Z,21.52
2023-01-15T10:24:07.881Z,29.58
2023-01-15T10:26:59.331Z,29.45
2023-01-15T10:29:56.032Z,30.98
2023-01-15T10:33:01.562Z,31.38
2023-01-15T10:36:02.563Z,76.72
2023-01-15T10:39:01.206Z,20.40
2023-01-15T10:42:02.929Z,24.45
2023-01-15T10:45:02.776Z,91.32
2023-01-15T10:47:59.094Z,31.52
2023-01-15T10:50:50.014Z,29.00
2023-01-15T10:53:49.006Z,49.90
2023-01-15T10:56:44.959Z,44.83
2023-01-15T10:59:42.461Z,34.92
2023-01-15T11:02:39.542Z,33.15
2023-01-15T11:05:30.166Z,44.97
2023-01-15T11:09:06.481Z,113.03
2023-01-15T11:12:02.134Z,116.30
2023-01-15T11:15:09.254Z,40.08
2023-01-15T11:18:16.169Z,42.47
2023-01-15T11:21:11.758Z,49.28
2023-01-15T11:24:01.967Z,74.03
2023-01-15T11:26:54.882Z,69.35
2023-01-15T11:29:47.102Z,84.30
2023-01-15T11:32:38.885Z,114.65
2023-01-15T11:35:28.678Z,101.53
2023-01-15T11:38:17.967Z,85.22
2023-01-15T11:41:07.252Z,85.85
2023-01-15T11:44:17.049Z,127.03
2023-01-15T11:47:32.358Z,81.10
2023-01-15T11:50:39.311Z,108.95
2023-01-15T11:53:33.598Z,83.57
2023-01-15T11:56:27.284Z,93.20
2023-01-15T11:59:21.004Z,99.90
2023-01-15T12:02:23.497Z,125.60
2023-01-15T12:05:19.484Z,103.32
2023-01-15T12:08:25.507Z,115.78
2023-01-15T12:11:32.453Z,97.13
2023-01-15T12:15:10.876Z,91.47
2023-01-15T12:18:37.532Z,95.32
2023-01-15T12:22:14.306Z,75.32
2023-01-15T12:25:27.799Z,74.85
2023-01-15T12:28:24.624Z,70.85
2023-01-15T12:31:20.996Z,72.28
2023-01-15T12:34:20.719Z,72.03
2023-01-15T12:37:21.407Z,65.95
2023-01-15T12:40:23.327Z,61.65
2023-01-15T12:43:38.403Z,50.58
2023-01-15T12:46:31.757Z,63.78
2023-01-15T12:49:32.996Z,85.38
2023-01-15T12:52:28.207Z,69.45
2023-01-15T12:55:22.176Z,83.28
2023-01-15T12:58:22.718Z,70.28
2023-01-15T13:01:21.124Z,86.80
2023-01-15T13:04:21.353Z,75.45
2023-01-15T13:07:19.840Z,84.68
2023-01-15T13:10:18.190Z,77.65
2023-01-15T13:13:17.411Z,80.32
2023-01-15T13:16:19.472Z,79.75
2023-01-15T13:19:29.356Z,103.43
2023-01-15T13:22:26.250Z,81.20
2023-01-15T13:26:00.637Z,74.95
2023-01-15T13:29:06.971Z,56.35
2023-01-15T13:32:03.092Z,99.65
2023-01-15T13:34:59.151Z,54.20
2023-01-15T13:37:52.187Z,58.47
2023-01-15T13:43:39.295Z,41.80
2023-01-15T13:46:28.549Z,78.00
2023-01-15T13:49:24.752Z,112.18
2023-01-15T13:52:26.155Z,66.25
2023-01-15T13:55:33.324Z,63.47
2023-01-15T13:58:27.095Z,46.58
2023-01-15T14:01:33.584Z,54.00
2023-01-15T14:04:37.629Z,44.95
2023-01-15T14:07:37.198Z,50.13
2023-01-15T14:10:44.062Z,44.58
2023-01-15T14:14:18.552Z,53.05
2023-01-15T14:17:29.187Z,70.68
2023-01-15T14:20:54.156Z,62.05
2023-01-15T14:24:29.018Z,60.88
2023-01-15T14:27:40.585Z,50.05
2023-01-15T14:31:05.350Z,60.70
2023-01-15T14:34:12.415Z,86.55
2023-01-15T14:37:05.184Z,58.45
2023-01-15T14:40:00.060Z,41.58
2023-01-15T14:43:07.118Z,27.20
2023-01-15T14:45:57.055Z,34.67
2023-01-15T14:48:46.674Z,33.83
2023-01-15T14:51:49.764Z,44.33
2023-01-15T14:54:40.683Z,44.50
2023-01-15T14:57:31.600Z,27.00
2023-01-15T15:00:23.495Z,36.10
2023-01-15T15:03:20.771Z,24.83
2023-01-15T15:06:15.104Z,37.25
2023-01-15T15:09:11.929Z,38.15
2023-01-15T15:12:21.579Z,42.88
2023-01-15T15:15:19.613Z,61.70
2023-01-15T15:18:21.294Z,33.75
2023-01-15T15:21:19.237Z,47.33
2023-01-15T15:24:16.857Z,28.48
2023-01-15T15:27:18.000Z,38.90
2023-01-15T15:30:14.254Z,29.08
2023-01-15T15:33:07.012Z,78.30
2023-01-15T15:35:59.622Z,41.88
2023-01-15T15:38:55.025Z,48.22
2023-01-15T15:42:06.098Z,37.25
2023-01-15T15:45:17.829Z,38.40
2023-01-15T15:48:36.484Z,68.82
2023-01-15T15:51:32.289Z,41.17
2023-01-15T15:54:23.452Z,38.00
2023-01-15T15:57:17.234Z,34.53
2023-01-15T16:00:17.754Z,35.30
2023-01-15T16:03:18.999Z,34.70
2023-01-15T16:06:20.374Z,35.90
2023-01-15T16:09:11.773Z,30.45
2023-01-15T16:12:07.427Z,38.90
2023-01-15T16:14:57.980Z,37.30
2023-01-15T16:17:50.175Z,45.42
2023-01-15T16:20:41.405Z,46.63
2023-01-15T16:23:32.775Z,42.47
2023-01-15T16:26:25.398Z,45.63
2023-01-15T16:29:23.681Z,44.17
2023-01-15T16:32:15.118Z,40.58
2023-01-15T16:35:16.026Z,46.03
2023-01-15T16:38:07.418Z,36.83
2023-01-15T16:40:58.141Z,42.63
2023-01-15T16:43:56.335Z,32.65
2023-01-15T16:46:59.025Z,35.25
2023-01-15T16:49:48.294Z,34.40
2023-01-15T16:52:52.982Z,40.70
2023-01-15T16:55:45.454Z,36.75
2023-01-15T16:58:39.410Z,89.15
2023-01-15T17:01:39.222Z,104.60
2023-01-15T17:04:31.706Z,58.65
2023-01-15T17:07:26.171Z,40.80
2023-01-15T17:10:23.377Z,36.05
2023-01-15T17:13:19.541Z,40.92
2023-01-15T17:16:19.246Z,38.20
2023-01-15T17:19:09.105Z,36.30
2023-01-15T17:21:58.311Z,49.17
2023-01-15T17:24:52.260Z,30.35
2023-01-15T17:27:41.498Z,40.97
2023-01-15T17:30:33.119Z,38.90
2023-01-15T17:33:23.818Z,34.42
2023-01-15T17:36:13.093Z,29.83
2023-01-15T17:39:02.393Z,45.58
2023-01-15T17:41:51.976Z,36.17
2023-01-15T17:44:41.237Z,41.65
2023-01-15T17:47:30.519Z,34.55
2023-01-15T17:50:21.573Z,46.35
2023-01-15T17:53:10.884Z,32.42
2023-01-15T17:56:18.029Z,33.85
2023-01-15T17:59:27.379Z,32.47
2023-01-15T18:02:34.931Z,37.50
2023-01-15T18:05:32.957Z,32.67
2023-01-15T18:08:22.235Z,43.25
2023-01-15T18:11:11.897Z,37.00
2023-01-15T18:14:01.270Z,54.92
2023-01-15T18:16:50.531Z,52.65
2023-01-15T18:19:39.774Z,47.42
2023-01-15T18:22:31.012Z,50.63
2023-01-15T18:25:20.356Z,67.15
2023-01-15T18:28:09.567Z,76.68
2023-01-15T18:30:58.820Z,45.95
2023-01-15T18:33:47.990Z,45.92
2023-01-15T18:36:37.303Z,48.80
2023-01-15T18:39:27.956Z,42.55
2023-01-15T18:42:34.241Z,59.92
2023-01-15T18:45:41.216Z,52.08
2023-01-15T18:48:30.435Z,50.85
2023-01-15T18:51:20.484Z,49.53
2023-01-15T18:54:10.356Z,47.00
2023-01-15T18:57:00.989Z,44.83
2023-01-15T18:59:50.643Z,51.70
2023-01-15T19:02:39.919Z,45.33
2023-01-15T19:05:29.121Z,41.20
2023-01-15T19:08:18.371Z,43.50
2023-01-15T19:11:13.412Z,40.28
2023-01-15T19:14:21.408Z,41.05
2023-01-15T19:17:32.305Z,47.45
2023-01-15T19:20:22.170Z,40.58
2023-01-15T19:23:11.596Z,43.22
2023-01-15T19:26:01.275Z,42.70
2023-01-15T19:28:50.647Z,43.10
2023-01-15T19:31:41.522Z,43.60
2023-01-15T19:34:34.138Z,44.42
2023-01-15T19:37:24.888Z,45.25
2023-01-15T19:40:17.380Z,42.25
2023-01-15T19:43:32.543Z,44.33
2023-01-15T19:46:39.113Z,82.20
2023-01-15T19:49:52.862Z,60.72
2023-01-15T19:52:42.173Z,44.88
2023-01-15T19:55:33.307Z,46.60
2023-01-15T19:58:22.685Z,41.25
2023-01-15T20:01:17.481Z,45.85
2023-01-15T20:04:07.079Z,52.88
2023-01-15T20:06:57.791Z,52.80
2023-01-15T20:09:47.401Z,46.88
2023-01-15T20:12:54.016Z,38.92
2023-01-15T20:15:46.548Z,40.35
2023-01-15T20:18:35.863Z,58.40
2023-01-15T20:21:25.085Z,46.83
2023-01-15T20:24:15.778Z,39.30
2023-01-15T20:27:05.279Z,39.22
2023-01-15T20:29:54.962Z,53.47
2023-01-15T20:32:47.275Z,151.57
2023-01-15T20:35:36.599Z,37.75
2023-01-15T20:38:25.809Z,34.00
2023-01-15T20:41:33.537Z,52.75
2023-01-15T20:44:40.137Z,35.75
2023-01-15T20:47:47.577Z,43.30
2023-01-15T20:50:38.980Z,41.90
2023-01-15T20:53:30.353Z,45.22
2023-01-15T20:56:21.451Z,42.88
2023-01-15T20:59:10.848Z,38.97
2023-01-15T21:02:00.207Z,46.25
2023-01-15T21:04:49.480Z,46.47
2023-01-15T21:07:39.365Z,39.08
2023-01-15T21:10:28.762Z,44.58
2023-01-15T21:13:23.677Z,40.88
2023-01-15T21:16:15.670Z,93.63
2023-01-15T21:19:05.219Z,45.42
2023-01-15T21:21:54.482Z,42.20
2023-01-15T21:24:44.195Z,46.25
2023-01-15T21:27:33.992Z,78.22
2023-01-15T21:30:25.884Z,43.22
2023-01-15T21:33:15.167Z,37.28
2023-01-15T21:36:08.060Z,37.72
2023-01-15T21:38:58.900Z,41.38
2023-01-15T21:42:06.507Z,37.05
2023-01-15T21:44:57.370Z,48.08
2023-01-15T21:47:47.951Z,44.08
2023-01-15T21:50:38.411Z,41.63
2023-01-15T21:53:28.060Z,46.20
2023-01-15T21:56:17.376Z,40.17
2023-01-15T21:59:06.798Z,41.50
2023-01-15T22:01:57.560Z,43.92
2023-01-15T22:04:48.697Z,66.22
2023-01-15T22:07:38.037Z,49.75
2023-01-15T22:10:27.351Z,56.55
2023-01-15T22:13:16.662Z,51.80
2023-01-15T22:16:06.663Z,59.72
2023-01-15T22:18:55.966Z,74.13
2023-01-15T22:21:46.754Z,53.67
2023-01-15T22:24:38.404Z,70.80
2023-01-15T22:27:29.526Z,53.20
2023-01-15T22:30:19.003Z,72.10
2023-01-15T22:33:08.184Z,69.18
2023-01-15T22:35:59.156Z,61.13
2023-01-15T22:38:54.019Z,62.85
2023-01-15T22:42:01.737Z,53.42
2023-01-15T22:44:51.690Z,56.80
2023-01-15T22:47:41.164Z,59.97
2023-01-15T22:50:30.402Z,63.85
2023-01-15T22:53:19.703Z,60.13
2023-01-15T22:56:10.445Z,99.22
2023-01-15T22:58:59.742Z,66.28
2023-01-15T23:01:49.190Z,86.18
2023-01-15T23:04:38.702Z,85.72
2023-01-15T23:07:28.034Z,91.38
2023-01-15T23:10:17.463Z,94.75
2023-01-15T23:13:08.129Z,94.55
2023-01-15T23:15:58.594Z,108.20
2023-01-15T23:18:48.187Z,106.50
2023-01-15T23:21:37.662Z,103.88
2023-01-15T23:24:26.898Z,100.93
2023-01-15T23:27:16.221Z,112.32
2023-01-15T23:30:08.588Z,104.07
2023-01-15T23:32:57.915Z,93.82
2023-01-15T23:35:47.364Z,79.75
2023-01-15T23:38:36.720Z,78.82
2023-01-15T23:41:40.937Z,69.88
2023-01-15T23:44:47.323Z,72.75
2023-01-15T23:47:38.017Z,70.35
2023-01-15T23:50:27.237Z,59.67
2023-01-15T23:53:16.506Z,57.63
2023-01-15T23:56:07.780Z,52.05
2023-01-15T23:58:57.834Z,56.95
